createdAt,value
2019-02-11T00:00:09.941Z,7.21
2019-02-11T00:02:38.397Z,6.95
2019-02-11T00:05:06.873Z,7.11
2019-02-11T00:07:35.325Z,6.93
2019-02-11T00:10:04.181Z,6.82
2019-02-11T00:12:32.622Z,6.70
2019-02-11T00:15:01.135Z,6.71
2019-02-11T00:17:29.568Z,6.64
2019-02-11T00:19:58.072Z,6.49
2019-02-11T00:22:26.531Z,6.49
2019-02-11T00:24:55.028Z,6.46
2019-02-11T00:27:23.475Z,6.43
2019-02-11T00:29:51.956Z,6.40
2019-02-11T00:32:20.408Z,6.38
2019-02-11T00:34:48.888Z,6.33
2019-02-11T00:37:17.334Z,6.29
2019-02-11T00:39:45.817Z,6.20
2019-02-11T00:42:14.267Z,6.23
2019-02-11T00:44:42.735Z,6.15
2019-02-11T00:47:11.227Z,6.03
2019-02-11T00:49:39.676Z,6.12
2019-02-11T00:52:08.163Z,5.89
2019-02-11T00:54:36.609Z,5.93
2019-02-11T00:57:05.092Z,5.90
2019-02-11T00:59:33.541Z,5.84
2019-02-11T01:02:02.022Z,5.87
2019-02-11T01:04:30.482Z,5.86
2019-02-11T01:06:58.967Z,5.77
2019-02-11T01:09:27.428Z,5.83
2019-02-11T01:11:55.899Z,5.73
2019-02-11T01:14:24.351Z,5.64
2019-02-11T01:16:52.837Z,5.63
2019-02-11T01:19:21.283Z,5.43
2019-02-11T01:21:49.762Z,5.39
2019-02-11T01:24:18.214Z,5.13
2019-02-11T01:26:46.698Z,5.13
2019-02-11T01:29:15.159Z,5.20
2019-02-11T01:31:43.621Z,5.02
2019-02-11T01:34:12.075Z,4.92
2019-02-11T01:36:40.550Z,4.90
2019-02-11T01:39:09.020Z,4.82
2019-02-11T01:41:37.516Z,4.81
2019-02-11T01:44:05.983Z,4.69
2019-02-11T01:46:34.484Z,4.44
2019-02-11T01:49:02.947Z,4.50
2019-02-11T01:51:31.432Z,4.31
2019-02-11T01:53:59.893Z,4.43
2019-02-11T01:56:28.419Z,4.28
2019-02-11T01:58:56.837Z,4.13
2019-02-11T02:01:25.317Z,4.08
2019-02-11T02:03:53.785Z,4.14
2019-02-11T02:06:22.267Z,4.11
2019-02-11T02:08:50.741Z,4.06
2019-02-11T02:11:19.226Z,4.02
2019-02-11T02:13:47.679Z,3.92
2019-02-11T02:16:16.154Z,3.98
2019-02-11T02:18:44.614Z,3.68
2019-02-11T02:21:13.106Z,3.67
2019-02-11T02:23:41.567Z,3.78
2019-02-11T02:26:10.053Z,3.64
2019-02-11T02:28:38.507Z,3.52
2019-02-11T02:31:06.981Z,3.43
2019-02-11T02:33:35.430Z,3.37
2019-02-11T02:36:03.910Z,3.28
2019-02-11T02:38:32.366Z,3.17
2019-02-11T02:41:00.860Z,3.18
2019-02-11T02:43:29.324Z,2.99
2019-02-11T02:45:57.810Z,2.85
2019-02-11T02:48:26.261Z,2.80
2019-02-11T02:50:54.768Z,2.79
2019-02-11T02:53:23.216Z,2.59
2019-02-11T02:55:57.687Z,2.51
2019-02-11T02:58:26.153Z,2.56
2019-02-11T03:00:54.636Z,2.42
2019-02-11T03:03:23.095Z,2.58
2019-02-11T03:05:52.992Z,2.60
2019-02-11T03:08:21.738Z,2.49
2019-02-11T03:10:50.200Z,2.39
2019-02-11T03:13:18.708Z,2.34
2019-02-11T03:15:47.163Z,2.32
2019-02-11T03:18:15.649Z,2.42
2019-02-11T03:20:44.099Z,2.35
2019-02-11T03:23:12.597Z,2.33
2019-02-11T03:25:41.044Z,2.34
2019-02-11T03:28:09.546Z,2.33
2019-02-11T03:30:38.004Z,2.41
2019-02-11T03:33:06.485Z,2.35
2019-02-11T03:35:34.947Z,2.38
2019-02-11T03:38:03.432Z,2.36
2019-02-11T03:40:31.946Z,2.38
2019-02-11T03:43:00.420Z,2.43
2019-02-11T03:45:28.872Z,2.49
2019-02-11T03:47:57.349Z,2.53
2019-02-11T03:50:25.803Z,2.60
2019-02-11T03:52:54.282Z,2.67
2019-02-11T03:55:22.743Z,2.76
2019-02-11T03:57:51.299Z,2.83
2019-02-11T04:00:19.780Z,2.91
2019-02-11T04:02:48.261Z,2.97
2019-02-11T04:05:16.721Z,3.04
2019-02-11T04:07:45.207Z,3.13
2019-02-11T04:10:13.674Z,3.20
2019-02-11T04:12:42.161Z,3.26
2019-02-11T04:15:10.730Z,3.36
2019-02-11T04:17:39.183Z,3.43
2019-02-11T04:20:08.582Z,3.51
2019-02-11T04:22:37.064Z,3.60
2019-02-11T04:25:06.612Z,3.64
2019-02-11T04:27:35.082Z,3.70
2019-02-11T04:30:03.613Z,3.78
2019-02-11T04:32:32.092Z,3.84
2019-02-11T04:35:00.561Z,3.87
2019-02-11T04:37:29.032Z,3.93
2019-02-11T04:39:57.511Z,3.95
2019-02-11T04:42:25.995Z,4.01
2019-02-11T04:44:54.467Z,4.03
2019-02-11T04:47:22.975Z,4.06
2019-02-11T04:49:51.433Z,4.08
2019-02-11T04:52:19.924Z,4.10
2019-02-11T04:54:48.393Z,4.12
2019-02-11T04:57:16.907Z,4.13
2019-02-11T04:59:45.372Z,4.17
2019-02-11T05:02:13.848Z,4.18
2019-02-11T05:04:42.380Z,4.19
2019-02-11T05:07:10.890Z,4.19
2019-02-11T05:09:39.347Z,4.20
2019-02-11T05:12:07.846Z,4.26
2019-02-11T05:14:43.451Z,4.24
2019-02-11T05:17:06.578Z,4.63
2019-02-11T05:19:35.034Z,4.41
2019-02-11T05:22:03.517Z,4.41
2019-02-11T05:24:31.972Z,4.39
2019-02-11T05:27:00.427Z,4.41
2019-02-11T05:29:28.908Z,4.41
2019-02-11T05:31:57.368Z,4.38
2019-02-11T05:34:25.854Z,4.40
2019-02-11T05:36:54.307Z,4.40
2019-02-11T05:39:22.805Z,4.44
2019-02-11T05:41:51.284Z,4.45
2019-02-11T05:44:19.776Z,4.45
2019-02-11T05:46:48.236Z,4.48
2019-02-11T05:49:16.732Z,4.50
2019-02-11T05:51:45.193Z,4.50
2019-02-11T05:54:13.678Z,4.47
2019-02-11T05:56:42.126Z,4.50
2019-02-11T05:59:10.607Z,4.51
2019-02-11T06:01:39.066Z,4.50
2019-02-11T06:04:07.548Z,4.52
2019-02-11T06:06:36.033Z,4.55
2019-02-11T06:09:05.551Z,4.54
2019-02-11T06:11:34.020Z,4.60
2019-02-11T06:14:02.520Z,4.57
2019-02-11T06:16:30.985Z,4.59
2019-02-11T06:18:59.483Z,4.65
2019-02-11T06:21:27.946Z,4.59
2019-02-11T06:23:56.426Z,4.64
2019-02-11T06:26:24.888Z,4.65
2019-02-11T06:28:53.380Z,4.70
2019-02-11T06:31:21.824Z,4.67
2019-02-11T06:33:50.306Z,4.70
2019-02-11T06:36:18.777Z,4.72
2019-02-11T06:38:47.246Z,4.73
2019-02-11T06:41:15.708Z,4.75
2019-02-11T06:43:44.203Z,4.73
2019-02-11T06:46:12.660Z,4.77
2019-02-11T06:48:41.157Z,4.79
2019-02-11T06:51:09.614Z,4.78
2019-02-11T06:53:38.093Z,4.78
2019-02-11T06:56:06.555Z,4.79
2019-02-11T06:58:35.040Z,4.81
2019-02-11T07:01:03.570Z,4.77
2019-02-11T07:03:32.045Z,4.77
2019-02-11T07:06:00.568Z,4.81
2019-02-11T07:08:29.048Z,4.79
2019-02-11T07:10:57.583Z,4.85
2019-02-11T07:13:26.070Z,4.91
2019-02-11T07:15:54.533Z,4.87
2019-02-11T07:18:23.011Z,4.90
2019-02-11T07:20:51.455Z,4.94
2019-02-11T07:23:19.937Z,4.96
2019-02-11T07:25:48.479Z,4.95
2019-02-11T07:28:16.967Z,5.00
2019-02-11T07:30:45.417Z,5.00
2019-02-11T07:33:13.898Z,5.05
2019-02-11T07:35:42.346Z,5.08
2019-02-11T07:38:10.826Z,5.08
2019-02-11T07:40:39.276Z,5.12
2019-02-11T07:43:15.132Z,5.09
2019-02-11T07:45:47.640Z,5.12
2019-02-11T07:48:16.174Z,5.16
2019-02-11T07:50:44.636Z,5.17
2019-02-11T07:53:13.081Z,5.20
2019-02-11T07:55:41.566Z,5.26
2019-02-11T07:58:10.012Z,5.30
2019-02-11T08:00:38.493Z,5.33
2019-02-11T08:03:06.942Z,5.32
2019-02-11T08:05:35.425Z,5.33
2019-02-11T08:08:03.893Z,5.42
2019-02-11T08:10:32.387Z,5.54
2019-02-11T08:13:00.834Z,5.57
2019-02-11T08:15:29.315Z,5.62
2019-02-11T08:17:58.206Z,5.64
2019-02-11T08:20:26.822Z,5.71
2019-02-11T08:22:55.276Z,5.70
2019-02-11T08:25:23.756Z,5.74
2019-02-11T08:27:52.206Z,5.78
2019-02-11T08:30:20.685Z,5.77
2019-02-11T08:32:49.133Z,5.79
2019-02-11T08:35:17.617Z,5.78
2019-02-11T08:37:46.078Z,5.72
2019-02-11T08:40:14.626Z,5.69
2019-02-11T08:42:43.094Z,5.68
2019-02-11T08:45:11.587Z,5.76
2019-02-11T08:47:40.051Z,5.70
2019-02-11T08:50:09.573Z,5.74
2019-02-11T08:52:38.036Z,5.73
2019-02-11T08:55:08.175Z,5.70
2019-02-11T08:57:36.638Z,5.70
2019-02-11T09:00:08.233Z,5.65
2019-02-11T09:02:37.020Z,5.75
2019-02-11T09:05:07.640Z,5.75
2019-02-11T09:07:36.101Z,5.68
2019-02-11T09:10:07.278Z,5.68
2019-02-11T09:12:35.727Z,5.74
2019-02-11T09:15:06.355Z,5.78
2019-02-11T09:17:34.821Z,5.81
2019-02-11T09:20:03.589Z,5.79
2019-02-11T09:22:32.047Z,5.86
2019-02-11T09:25:00.542Z,5.83
2019-02-11T09:27:29.007Z,5.85
2019-02-11T09:29:57.536Z,5.87
2019-02-11T09:32:26.007Z,5.88
2019-02-11T09:34:54.478Z,5.93
2019-02-11T09:37:22.931Z,5.93
2019-02-11T09:39:51.420Z,6.04
2019-02-11T09:42:19.872Z,6.05
2019-02-11T09:44:48.355Z,6.06
2019-02-11T09:47:16.823Z,6.08
2019-02-11T09:49:46.810Z,6.17
2019-02-11T09:52:15.262Z,6.21
2019-02-11T09:54:43.770Z,6.59
2019-02-11T09:57:12.222Z,6.33
2019-02-11T09:59:40.703Z,6.36
2019-02-11T10:02:09.162Z,6.34
2019-02-11T10:04:37.664Z,6.38
2019-02-11T10:07:06.120Z,6.39
2019-02-11T10:09:34.965Z,6.33
2019-02-11T10:12:03.805Z,6.33
2019-02-11T10:14:32.269Z,6.37
2019-02-11T10:17:00.889Z,6.31
2019-02-11T10:19:29.346Z,6.45
2019-02-11T10:21:57.829Z,6.37
2019-02-11T10:24:26.297Z,6.39
2019-02-11T10:26:54.787Z,6.38
2019-02-11T10:29:23.256Z,6.47
2019-02-11T10:31:51.745Z,6.41
2019-02-11T10:34:20.217Z,6.48
2019-02-11T10:36:48.703Z,6.46
2019-02-11T10:39:17.196Z,6.45
2019-02-11T10:41:45.659Z,6.55
2019-02-11T10:44:14.164Z,6.55
2019-02-11T10:46:42.653Z,6.55
2019-02-11T10:49:11.135Z,6.66
2019-02-11T10:51:39.633Z,6.73
2019-02-11T10:54:08.093Z,6.77
2019-02-11T10:56:36.582Z,6.97
2019-02-11T10:59:05.113Z,6.97
2019-02-11T11:01:33.591Z,6.99
2019-02-11T11:04:02.069Z,7.05
2019-02-11T11:06:30.565Z,7.15
2019-02-11T11:08:59.011Z,7.17
2019-02-11T11:11:27.495Z,7.12
2019-02-11T11:13:56.043Z,7.17
2019-02-11T11:16:29.589Z,7.07
2019-02-11T11:18:54.727Z,7.15
2019-02-11T11:21:23.218Z,7.09
2019-02-11T11:23:51.697Z,7.22
2019-02-11T11:26:20.259Z,7.14
2019-02-11T11:28:48.732Z,7.11
2019-02-11T11:31:17.227Z,7.11
2019-02-11T11:33:45.999Z,7.07
2019-02-11T11:36:14.656Z,7.15
2019-02-11T11:38:43.123Z,7.17
2019-02-11T11:41:11.621Z,7.11
2019-02-11T11:43:40.080Z,7.28
2019-02-11T11:46:08.613Z,7.33
2019-02-11T11:48:37.030Z,7.28
2019-02-11T11:51:05.522Z,7.29
2019-02-11T11:53:33.997Z,7.28
2019-02-11T11:56:02.724Z,7.11
2019-02-11T11:58:31.497Z,7.12
2019-02-11T12:00:59.998Z,7.17
2019-02-11T12:03:28.447Z,7.19
2019-02-11T12:05:57.013Z,7.07
2019-02-11T12:08:25.588Z,6.96
2019-02-11T12:10:54.201Z,7.10
2019-02-11T12:13:23.697Z,7.09
2019-02-11T12:15:52.438Z,7.02
2019-02-11T12:18:20.921Z,7.00
2019-02-11T12:20:49.419Z,6.94
2019-02-11T12:23:17.929Z,7.09
2019-02-11T12:25:46.417Z,7.11
2019-02-11T12:28:14.890Z,7.11
2019-02-11T12:30:43.368Z,7.02
2019-02-11T12:33:11.850Z,6.96
2019-02-11T12:35:40.417Z,6.95
2019-02-11T12:38:09.086Z,7.02
2019-02-11T12:40:37.585Z,7.05
2019-02-11T12:43:06.255Z,7.10
2019-02-11T12:45:34.752Z,7.13
2019-02-11T12:48:03.318Z,7.25
2019-02-11T12:50:32.712Z,7.28
2019-02-11T12:53:01.184Z,7.36
2019-02-11T12:55:29.653Z,7.41
2019-02-11T12:57:58.155Z,7.45
2019-02-11T13:00:26.603Z,7.59
2019-02-11T13:02:55.105Z,7.57
2019-02-11T13:05:42.667Z,7.51
2019-02-11T13:07:54.061Z,7.56
2019-02-11T13:10:24.276Z,7.66
2019-02-11T13:12:52.776Z,7.70
2019-02-11T13:15:53.175Z,7.63
2019-02-11T13:17:51.765Z,7.67
2019-02-11T13:20:20.397Z,7.68
2019-02-11T13:22:48.981Z,7.72
2019-02-11T13:25:18.659Z,7.60
2019-02-11T13:27:47.377Z,7.52
2019-02-11T13:30:25.698Z,7.64
2019-02-11T13:32:54.171Z,7.56
2019-02-11T13:35:22.648Z,7.61
2019-02-11T13:37:54.825Z,7.57
2019-02-11T13:40:21.307Z,7.52
2019-02-11T13:42:49.809Z,7.53
2019-02-11T13:45:20.568Z,7.49
2019-02-11T13:47:55.422Z,7.63
2019-02-11T13:50:22.664Z,7.59
2019-02-11T13:52:51.698Z,7.67
2019-02-11T13:55:20.466Z,7.62
2019-02-11T13:57:49.584Z,7.70
2019-02-11T14:00:22.379Z,7.49
2019-02-11T14:02:53.205Z,7.43
2019-02-11T14:05:22.527Z,7.50
2019-02-11T14:07:51.091Z,7.31
2019-02-11T14:10:19.703Z,7.30
2019-02-11T14:12:48.927Z,7.42
2019-02-11T14:15:20.545Z,7.47
2019-02-11T14:17:47.614Z,7.52
2019-02-11T14:20:21.843Z,7.54
2019-02-11T14:22:50.317Z,7.65
2019-02-11T14:25:39.148Z,7.64
2019-02-11T14:27:48.997Z,7.63
2019-02-11T14:30:22.179Z,7.46
2019-02-11T14:32:50.787Z,7.46
2019-02-11T14:35:20.384Z,7.41
2019-02-11T14:37:49.172Z,7.37
2019-02-11T14:40:17.770Z,7.27
2019-02-11T14:42:46.260Z,7.26
2019-02-11T14:45:16.891Z,7.21
2019-02-11T14:47:45.508Z,7.18
2019-02-11T14:50:14.040Z,7.00
2019-02-11T14:52:42.670Z,6.98
2019-02-11T14:55:11.974Z,6.84
2019-02-11T14:57:40.513Z,6.88
2019-02-11T15:00:18.661Z,6.81
2019-02-11T15:02:47.213Z,6.79
2019-02-11T15:05:16.000Z,6.74
2019-02-11T15:07:44.658Z,6.72
2019-02-11T15:10:14.122Z,6.73
2019-02-11T15:12:42.605Z,6.71
2019-02-11T15:15:12.314Z,6.72
2019-02-11T15:17:42.437Z,6.69
2019-02-11T15:20:12.626Z,6.69
2019-02-11T15:22:41.106Z,6.66
2019-02-11T15:25:12.221Z,6.59
2019-02-11T15:27:40.694Z,6.56
2019-02-11T15:30:12.099Z,6.53
2019-02-11T15:32:40.593Z,6.50
2019-02-11T15:35:09.618Z,6.51
2019-02-11T15:37:38.100Z,6.43
2019-02-11T15:40:09.713Z,6.39
2019-02-11T15:42:38.193Z,6.37
2019-02-11T15:45:12.438Z,6.39
2019-02-11T15:47:40.940Z,6.30
2019-02-11T15:50:11.744Z,6.25
2019-02-11T15:52:40.358Z,6.27
2019-02-11T15:55:11.476Z,6.21
2019-02-11T15:57:39.977Z,6.20
2019-02-11T16:00:11.506Z,6.16
2019-02-11T16:02:40.012Z,6.13
2019-02-11T16:05:16.052Z,6.11
2019-02-11T16:07:39.913Z,6.07
2019-02-11T16:10:14.122Z,6.03
2019-02-11T16:12:42.590Z,6.01
2019-02-11T16:15:12.297Z,5.96
2019-02-11T16:17:40.775Z,5.94
2019-02-11T16:20:11.597Z,5.87
2019-02-11T16:22:42.136Z,5.83
2019-02-11T16:25:12.318Z,5.80
2019-02-11T16:27:40.780Z,5.76
2019-02-11T16:30:15.384Z,5.74
2019-02-11T16:32:43.910Z,5.70
2019-02-11T16:35:14.110Z,5.63
2019-02-11T16:37:42.562Z,5.58
2019-02-11T16:40:28.893Z,5.54
2019-02-11T16:42:57.378Z,5.47
2019-02-11T16:45:25.823Z,5.43
2019-02-11T16:47:54.299Z,5.36
2019-02-11T16:50:22.839Z,5.34
2019-02-11T16:52:51.359Z,5.29
2019-02-11T16:55:19.842Z,5.25
2019-02-11T16:57:48.302Z,5.20
2019-02-11T17:00:18.593Z,5.17
2019-02-11T17:02:47.088Z,5.15
2019-02-11T17:05:15.651Z,5.11
2019-02-11T17:07:44.100Z,5.07
2019-02-11T17:10:14.015Z,5.07
2019-02-11T17:12:42.527Z,5.03
2019-02-11T17:15:18.384Z,4.99
2019-02-11T17:17:46.957Z,4.94
2019-02-11T17:20:16.439Z,4.94
2019-02-11T17:22:45.335Z,4.88
2019-02-11T17:25:14.941Z,4.87
2019-02-11T17:27:43.588Z,4.84
2019-02-11T17:30:15.121Z,4.83
2019-02-11T17:32:43.575Z,4.79
2019-02-11T17:35:12.076Z,4.80
2019-02-11T17:37:40.542Z,4.79
2019-02-11T17:40:12.026Z,4.76
2019-02-11T17:42:40.557Z,4.76
2019-02-11T17:45:20.775Z,4.74
2019-02-11T17:47:49.231Z,4.72
2019-02-11T17:50:17.713Z,4.71
2019-02-11T17:52:46.167Z,4.74
2019-02-11T17:55:15.121Z,4.72
2019-02-11T17:57:43.564Z,4.71
2019-02-11T18:00:16.758Z,4.67
2019-02-11T18:02:45.209Z,4.67
2019-02-11T18:05:13.693Z,4.66
2019-02-11T18:07:42.150Z,4.66
2019-02-11T18:10:10.630Z,4.62
2019-02-11T18:12:39.099Z,4.61
2019-02-11T18:15:10.105Z,4.58
2019-02-11T18:17:38.563Z,4.56
2019-02-11T18:20:08.986Z,4.56
2019-02-11T18:22:37.445Z,4.55
2019-02-11T18:25:08.386Z,4.51
2019-02-11T18:27:36.833Z,4.50
2019-02-11T18:30:09.670Z,4.46
2019-02-11T18:32:38.149Z,4.47
2019-02-11T18:35:09.845Z,4.43
2019-02-11T18:37:38.293Z,4.46
2019-02-11T18:40:11.850Z,4.44
2019-02-11T18:42:40.123Z,4.41
2019-02-11T18:45:11.448Z,4.43
2019-02-11T18:47:39.907Z,4.41
2019-02-11T18:50:13.759Z,4.40
2019-02-11T18:52:42.286Z,4.39
2019-02-11T18:55:13.832Z,4.40
2019-02-11T18:57:42.363Z,4.37
2019-02-11T19:00:18.135Z,4.37
2019-02-11T19:02:46.928Z,4.38
2019-02-11T19:05:16.860Z,4.36
2019-02-11T19:07:45.367Z,4.36
2019-02-11T19:10:15.677Z,4.28
2019-02-11T19:12:44.939Z,4.30
2019-02-11T19:15:15.555Z,4.28
2019-02-11T19:17:44.272Z,4.26
2019-02-11T19:20:14.805Z,4.24
2019-02-11T19:22:43.319Z,4.23
2019-02-11T19:25:12.441Z,4.20
2019-02-11T19:27:40.896Z,4.14
2019-02-11T19:30:12.516Z,4.10
2019-02-11T19:32:40.966Z,4.12
2019-02-11T19:35:09.513Z,4.11
2019-02-11T19:37:37.974Z,4.07
2019-02-11T19:40:09.858Z,4.08
2019-02-11T19:42:38.324Z,4.06
2019-02-11T19:45:09.853Z,4.06
2019-02-11T19:47:38.661Z,4.01
2019-02-11T19:50:10.475Z,3.99
2019-02-11T19:52:38.929Z,3.88
2019-02-11T19:55:10.892Z,3.90
2019-02-11T19:57:39.500Z,3.90
2019-02-11T20:00:19.279Z,3.88
2019-02-11T20:02:48.507Z,3.87
2019-02-11T20:05:17.159Z,3.76
2019-02-11T20:07:45.951Z,3.75
2019-02-11T20:10:25.103Z,3.74
2019-02-11T20:12:53.644Z,3.70
2019-02-11T20:15:30.391Z,3.69
2019-02-11T20:17:58.847Z,3.71
2019-02-11T20:20:27.336Z,3.69
2019-02-11T20:22:55.807Z,3.66
2019-02-11T20:25:24.263Z,3.69
2019-02-11T20:27:52.744Z,3.69
2019-02-11T20:30:23.992Z,3.69
2019-02-11T20:32:52.472Z,3.73
2019-02-11T20:35:20.956Z,3.69
2019-02-11T20:37:49.439Z,3.67
2019-02-11T20:40:20.792Z,3.65
2019-02-11T20:42:49.277Z,3.64
2019-02-11T20:45:20.491Z,3.67
2019-02-11T20:47:48.972Z,3.66
2019-02-11T20:50:17.448Z,3.69
2019-02-11T20:52:45.930Z,3.64
2019-02-11T20:55:15.026Z,3.61
2019-02-11T20:57:44.737Z,3.63
2019-02-11T21:00:16.802Z,3.61
2019-02-11T21:02:45.455Z,3.59
2019-02-11T21:05:13.921Z,3.56
2019-02-11T21:07:42.412Z,3.52
2019-02-11T21:10:15.679Z,3.53
2019-02-11T21:12:44.310Z,3.53
2019-02-11T21:15:16.936Z,3.48
2019-02-11T21:17:45.492Z,3.47
2019-02-11T21:20:17.889Z,3.45
2019-02-11T21:22:46.603Z,3.39
2019-02-11T21:25:15.135Z,3.37
2019-02-11T21:27:43.619Z,3.36
2019-02-11T21:30:16.160Z,3.32
2019-02-11T21:32:44.707Z,3.32
2019-02-11T21:35:13.807Z,3.27
2019-02-11T21:37:42.288Z,3.22
2019-02-11T21:40:10.807Z,3.23
2019-02-11T21:42:39.292Z,3.24
2019-02-11T21:45:10.799Z,3.19
2019-02-11T21:47:39.284Z,3.18
2019-02-11T21:50:10.813Z,3.15
2019-02-11T21:52:39.298Z,3.12
2019-02-11T21:55:10.705Z,3.09
2019-02-11T21:57:39.190Z,3.08
2019-02-11T22:00:13.546Z,3.04
2019-02-11T22:02:42.024Z,3.03
2019-02-11T22:05:10.571Z,3.02
2019-02-11T22:07:39.114Z,3.03
2019-02-11T22:10:19.007Z,2.98
2019-02-11T22:12:47.490Z,2.92
2019-02-11T22:15:16.122Z,2.98
2019-02-11T22:17:44.614Z,2.90
2019-02-11T22:20:15.351Z,2.87
2019-02-11T22:22:43.836Z,2.83
2019-02-11T22:25:13.694Z,2.83
2019-02-11T22:27:42.279Z,2.80
2019-02-11T22:30:13.788Z,2.83
2019-02-11T22:32:42.266Z,2.77
2019-02-11T22:35:11.295Z,2.75
2019-02-11T22:37:40.271Z,2.75
2019-02-11T22:40:14.237Z,2.76
2019-02-11T22:42:42.787Z,2.77
2019-02-11T22:45:19.189Z,2.79
2019-02-11T22:47:47.733Z,2.82
2019-02-11T22:50:16.213Z,2.82
2019-02-11T22:52:44.697Z,2.88
2019-02-11T22:55:14.907Z,2.90
2019-02-11T22:57:43.403Z,2.92
2019-02-11T23:00:25.569Z,2.96
2019-02-11T23:02:54.122Z,2.95
2019-02-11T23:05:22.581Z,2.94
2019-02-11T23:07:51.065Z,2.94
2019-02-11T23:10:19.603Z,2.97
2019-02-11T23:12:48.076Z,2.98
2019-02-11T23:15:16.613Z,2.98
2019-02-11T23:17:45.115Z,2.95
2019-02-11T23:20:14.310Z,2.97
2019-02-11T23:22:42.795Z,3.01
2019-02-11T23:25:11.250Z,3.02
2019-02-11T23:27:39.724Z,3.03
2019-02-11T23:30:13.427Z,3.08
2019-02-11T23:32:39.750Z,3.05
2019-02-11T23:35:08.230Z,3.08
2019-02-11T23:37:36.688Z,3.09
2019-02-11T23:40:07.975Z,3.11
2019-02-11T23:42:36.453Z,3.12
2019-02-11T23:45:07.686Z,3.15
2019-02-11T23:47:36.141Z,3.13
2019-02-11T23:50:07.016Z,3.15
2019-02-11T23:52:35.482Z,3.16
2019-02-11T23:55:04.900Z,3.19
2019-02-11T23:57:33.364Z,3.17
